createdAt,value
2023-04-26T00:01:08.221Z,94.95
2023-04-26T00:03:40.673Z,95.87
2023-04-26T00:06:14.080Z,94.74
2023-04-26T00:08:45.346Z,94.64
2023-04-26T00:11:16.641Z,95.29
2023-04-26T00:13:48.941Z,95.19
2023-04-26T00:16:20.924Z,94.58
2023-04-26T00:18:52.473Z,95.17
2023-04-26T00:21:24.019Z,95.34
2023-04-26T00:23:55.311Z,95.39
2023-04-26T00:26:26.674Z,94.95
2023-04-26T00:28:57.963Z,94.99
2023-04-26T00:31:29.361Z,95.23
2023-04-26T00:34:00.711Z,94.91
2023-04-26T00:36:32.595Z,95.42
2023-04-26T00:39:04.068Z,95.38
2023-04-26T00:41:35.356Z,94.92
2023-04-26T00:44:06.681Z,95.33
2023-04-26T00:46:38.088Z,95.35
2023-04-26T00:49:15.954Z,95.20
2023-04-26T00:51:48.193Z,94.99
2023-04-26T00:54:20.849Z,95.32
2023-04-26T00:56:53.194Z,94.98
2023-04-26T00:59:24.545Z,95.17
2023-04-26T01:01:56.182Z,95.89
2023-04-26T01:04:27.748Z,96.15
2023-04-26T01:07:01.815Z,95.48
2023-04-26T01:09:33.293Z,95.47
2023-04-26T01:12:06.576Z,95.75
2023-04-26T01:14:39.802Z,95.59
2023-04-26T01:17:11.367Z,95.56
2023-04-26T01:19:49.994Z,95.65
2023-04-26T01:22:21.741Z,95.38
2023-04-26T01:24:55.030Z,95.81
2023-04-26T01:27:26.753Z,95.31
2023-04-26T01:29:58.150Z,95.41
2023-04-26T01:32:29.494Z,94.92
2023-04-26T01:35:00.930Z,95.03
2023-04-26T01:37:32.198Z,94.94
2023-04-26T01:40:06.947Z,95.37
2023-04-26T01:42:38.256Z,95.74
2023-04-26T01:45:09.994Z,95.65
2023-04-26T01:47:41.306Z,95.76
2023-04-26T01:50:12.724Z,95.13
2023-04-26T01:52:44.007Z,95.76
2023-04-26T01:55:15.398Z,95.44
2023-04-26T01:57:46.662Z,95.05
2023-04-26T02:00:18.256Z,95.38
2023-04-26T02:02:49.699Z,95.41
2023-04-26T02:05:21.556Z,94.85
2023-04-26T02:07:52.972Z,95.70
2023-04-26T02:10:24.350Z,95.63
2023-04-26T02:12:55.649Z,95.51
2023-04-26T02:15:26.940Z,95.63
2023-04-26T02:17:58.476Z,95.08
2023-04-26T02:20:29.904Z,95.75
2023-04-26T02:23:01.202Z,95.65
2023-04-26T02:25:33.198Z,95.73
2023-04-26T02:28:07.251Z,95.73
2023-04-26T02:30:38.710Z,95.86
2023-04-26T02:33:10.667Z,95.26
2023-04-26T02:35:41.940Z,95.54
2023-04-26T02:38:13.249Z,95.28
2023-04-26T02:40:44.642Z,95.13
2023-04-26T02:43:15.972Z,95.56
2023-04-26T02:45:47.338Z,95.51
2023-04-26T02:48:18.917Z,95.36
2023-04-26T02:50:50.315Z,95.16
2023-04-26T02:53:21.700Z,95.51
2023-04-26T02:55:53.036Z,95.57
2023-04-26T02:58:24.305Z,95.32
2023-04-26T03:01:00.472Z,95.66
2023-04-26T03:03:33.009Z,95.02
2023-04-26T03:06:04.648Z,95.14
2023-04-26T03:08:36.614Z,95.18
2023-04-26T03:11:07.949Z,95.43
2023-04-26T03:13:39.244Z,95.18
2023-04-26T03:16:11.055Z,95.45
2023-04-26T03:18:42.363Z,95.84
2023-04-26T03:21:13.668Z,95.59
2023-04-26T03:23:45.011Z,95.93
2023-04-26T03:26:16.394Z,95.89
2023-04-26T03:28:47.686Z,96.26
2023-04-26T03:31:20.854Z,96.63
2023-04-26T03:33:52.210Z,96.43
2023-04-26T03:36:23.578Z,96.64
2023-04-26T03:38:54.875Z,97.03
2023-04-26T03:41:26.299Z,96.31
2023-04-26T03:43:57.605Z,96.43
2023-04-26T03:46:29.250Z,97.05
2023-04-26T03:49:00.905Z,96.36
2023-04-26T03:51:32.228Z,97.21
2023-04-26T03:54:04.439Z,97.11
2023-04-26T03:56:36.882Z,97.64
2023-04-26T03:59:09.847Z,96.96
2023-04-26T04:01:41.336Z,97.17
2023-04-26T04:04:12.851Z,97.33
2023-04-26T04:06:44.342Z,96.92
2023-04-26T04:09:15.804Z,97.32
2023-04-26T04:11:47.636Z,97.51
2023-04-26T04:14:18.989Z,97.15
2023-04-26T04:16:50.740Z,97.08
2023-04-26T04:19:22.022Z,96.79
2023-04-26T04:21:53.406Z,97.27
2023-04-26T04:24:25.601Z,96.87
2023-04-26T04:26:56.960Z,97.37
2023-04-26T04:29:28.256Z,96.73
2023-04-26T04:31:59.541Z,96.54
2023-04-26T04:34:34.509Z,97.29
2023-04-26T04:37:05.777Z,96.81
2023-04-26T04:39:37.738Z,97.15
2023-04-26T04:42:10.238Z,97.57
2023-04-26T04:44:41.976Z,98.21
2023-04-26T04:47:13.700Z,97.11
2023-04-26T04:49:45.292Z,97.28
2023-04-26T04:52:18.796Z,97.15
2023-04-26T04:54:50.433Z,97.15
2023-04-26T04:57:21.758Z,97.71
2023-04-26T04:59:53.237Z,98.38
2023-04-26T05:02:25.743Z,98.64
2023-04-26T05:04:57.563Z,98.36
2023-04-26T05:07:29.226Z,99.25
2023-04-26T05:10:00.656Z,97.94
2023-04-26T05:12:32.284Z,98.93
2023-04-26T05:15:04.601Z,98.05
2023-04-26T05:17:36.170Z,97.92
2023-04-26T05:20:08.383Z,98.67
2023-04-26T05:22:39.871Z,97.68
2023-04-26T05:25:11.351Z,98.68
2023-04-26T05:27:42.800Z,98.22
2023-04-26T05:30:14.294Z,98.32
2023-04-26T05:32:45.810Z,98.93
2023-04-26T05:35:19.278Z,98.85
2023-04-26T05:37:50.655Z,99.13
2023-04-26T05:40:22.012Z,98.67
2023-04-26T05:42:53.457Z,98.81
2023-04-26T05:45:24.796Z,98.88
2023-04-26T05:47:56.208Z,98.47
2023-04-26T05:50:28.550Z,98.50
2023-04-26T05:52:59.888Z,98.54
2023-04-26T05:55:33.309Z,99.07
2023-04-26T05:58:05.101Z,100.00
2023-04-26T06:00:38.613Z,100.00
2023-04-26T06:03:10.169Z,97.01
2023-04-26T06:05:41.693Z,89.73
2023-04-26T06:08:13.069Z,88.39
2023-04-26T06:10:44.442Z,89.16
2023-04-26T06:13:15.927Z,89.48
2023-04-26T06:15:47.281Z,89.15
2023-04-26T06:18:18.602Z,89.57
2023-04-26T06:20:50.944Z,90.33
2023-04-26T06:23:22.343Z,91.25
2023-04-26T06:25:53.635Z,92.00
2023-04-26T06:28:24.912Z,93.96
2023-04-26T06:30:56.430Z,95.32
2023-04-26T06:33:27.801Z,95.67
2023-04-26T06:35:59.178Z,95.85
2023-04-26T06:38:30.613Z,97.65
2023-04-26T06:41:01.946Z,99.47
2023-04-26T06:43:33.303Z,99.40
2023-04-26T06:46:05.193Z,97.49
2023-04-26T06:48:36.563Z,97.92
2023-04-26T06:51:08.591Z,99.91
2023-04-26T06:53:41.457Z,99.88
2023-04-26T06:56:12.818Z,100.00
2023-04-26T06:58:59.938Z,100.00
2023-04-26T07:01:34.878Z,100.00
2023-04-26T07:04:10.988Z,100.00
2023-04-26T07:06:42.534Z,100.00
2023-04-26T07:09:14.083Z,100.00
2023-04-26T07:11:47.316Z,100.00
2023-04-26T07:14:18.936Z,100.00
2023-04-26T07:16:50.300Z,100.00
2023-04-26T07:19:21.575Z,98.81
2023-04-26T07:21:53.048Z,99.21
2023-04-26T07:24:24.394Z,97.45
2023-04-26T07:26:56.808Z,97.49
2023-04-26T07:29:28.638Z,95.03
2023-04-26T07:32:00.010Z,93.65
2023-04-26T07:34:31.464Z,94.02
2023-04-26T07:37:03.405Z,95.87
2023-04-26T07:39:35.183Z,96.77
2023-04-26T07:42:07.251Z,96.94
2023-04-26T07:44:38.601Z,94.59
2023-04-26T07:47:13.570Z,94.88
2023-04-26T07:49:46.383Z,94.04
2023-04-26T07:52:19.059Z,94.58
2023-04-26T07:54:50.526Z,95.88
2023-04-26T07:57:21.891Z,96.70
2023-04-26T07:59:53.204Z,96.46
2023-04-26T08:02:36.714Z,96.50
2023-04-26T08:05:15.913Z,95.51
2023-04-26T08:07:47.429Z,93.86
2023-04-26T08:10:18.958Z,93.54
2023-04-26T08:12:50.321Z,94.09
2023-04-26T08:15:21.686Z,94.98
2023-04-26T08:17:53.295Z,94.24
2023-04-26T08:20:25.241Z,94.31
2023-04-26T08:22:57.100Z,92.86
2023-04-26T08:25:28.972Z,93.15
2023-04-26T08:28:01.874Z,92.63
2023-04-26T08:30:33.444Z,90.06
2023-04-26T08:33:04.816Z,91.20
2023-04-26T08:35:36.320Z,90.36
2023-04-26T08:38:07.701Z,90.83
2023-04-26T08:40:41.537Z,90.71
2023-04-26T08:43:15.160Z,90.00
2023-04-26T08:45:47.117Z,90.01
2023-04-26T08:48:19.401Z,90.24
2023-04-26T08:50:52.133Z,88.43
2023-04-26T08:53:24.873Z,86.68
2023-04-26T08:55:56.433Z,87.04
2023-04-26T08:58:28.135Z,82.57
2023-04-26T09:01:00.986Z,84.85
2023-04-26T09:03:33.221Z,87.34
2023-04-26T09:06:06.755Z,90.48
2023-04-26T09:08:41.549Z,89.25
2023-04-26T09:11:12.972Z,91.12
2023-04-26T09:13:44.279Z,92.44
2023-04-26T09:16:15.843Z,92.04
2023-04-26T09:18:52.031Z,92.68
2023-04-26T09:21:23.431Z,92.81
2023-04-26T09:24:06.447Z,93.43
2023-04-26T09:26:38.684Z,92.73
2023-04-26T09:29:15.022Z,91.32
2023-04-26T09:31:49.925Z,91.64
2023-04-26T09:34:21.717Z,92.72
2023-04-26T09:36:56.912Z,90.81
2023-04-26T09:39:37.259Z,90.31
2023-04-26T09:42:10.122Z,91.36
2023-04-26T09:44:41.459Z,90.57
2023-04-26T09:47:12.950Z,89.88
2023-04-26T09:49:51.581Z,88.14
2023-04-26T09:52:22.898Z,84.17
2023-04-26T09:54:55.036Z,84.12
2023-04-26T09:57:26.370Z,85.85
2023-04-26T09:59:57.843Z,87.53
2023-04-26T10:02:29.974Z,87.93
2023-04-26T10:05:03.024Z,87.74
2023-04-26T10:07:34.629Z,88.62
2023-04-26T10:10:07.794Z,86.77
2023-04-26T10:12:42.246Z,87.53
2023-04-26T10:15:14.842Z,86.23
2023-04-26T10:17:46.217Z,87.07
2023-04-26T10:20:20.223Z,87.59
2023-04-26T10:22:54.956Z,87.34
2023-04-26T10:25:39.785Z,86.64
2023-04-26T10:28:11.473Z,86.74
2023-04-26T10:30:56.684Z,85.60
2023-04-26T10:33:28.179Z,86.19
2023-04-26T10:36:15.078Z,85.25
2023-04-26T10:39:17.158Z,84.02
2023-04-26T10:41:48.703Z,83.01
2023-04-26T10:44:39.652Z,83.21
2023-04-26T10:47:31.617Z,82.62
2023-04-26T10:50:11.406Z,78.07
2023-04-26T10:53:04.199Z,81.44
2023-04-26T10:55:43.003Z,83.28
2023-04-26T10:58:28.431Z,82.94
2023-04-26T11:01:13.279Z,82.46
2023-04-26T11:04:04.984Z,76.80
2023-04-26T11:06:51.264Z,75.27
2023-04-26T11:09:42.306Z,75.87
2023-04-26T11:12:15.115Z,76.44
2023-04-26T11:14:46.636Z,74.25
2023-04-26T11:17:18.057Z,76.99
2023-04-26T11:19:49.404Z,77.46
2023-04-26T11:22:23.227Z,74.71
2023-04-26T11:24:54.613Z,77.76
2023-04-26T11:27:27.658Z,78.44
2023-04-26T11:30:04.355Z,77.59
2023-04-26T11:32:35.893Z,76.89
2023-04-26T11:35:07.625Z,78.44
2023-04-26T11:37:38.995Z,77.90
2023-04-26T11:40:11.625Z,79.15
2023-04-26T11:42:44.858Z,79.21
2023-04-26T11:45:16.709Z,79.66
2023-04-26T11:47:48.334Z,77.77
2023-04-26T11:50:20.790Z,77.64
2023-04-26T11:52:54.826Z,77.72
2023-04-26T11:55:33.055Z,76.95
2023-04-26T11:58:14.914Z,76.69
2023-04-26T12:01:01.950Z,71.92
2023-04-26T12:03:37.996Z,76.64
2023-04-26T12:06:09.764Z,76.73
2023-04-26T12:08:41.379Z,77.48
2023-04-26T12:11:16.790Z,79.08
2023-04-26T12:13:48.101Z,81.43
2023-04-26T12:16:26.065Z,82.95
2023-04-26T12:18:58.292Z,83.30
2023-04-26T12:21:30.910Z,84.55
2023-04-26T12:24:02.618Z,85.13
2023-04-26T12:26:47.216Z,85.97
2023-04-26T12:29:18.664Z,87.17
2023-04-26T12:31:50.260Z,87.19
2023-04-26T12:34:21.800Z,87.47
2023-04-26T12:36:53.262Z,88.21
2023-04-26T12:39:24.651Z,87.88
2023-04-26T12:41:55.916Z,88.22
2023-04-26T12:44:27.418Z,87.74
2023-04-26T12:46:58.839Z,87.52
2023-04-26T12:49:30.426Z,87.54
2023-04-26T12:52:01.787Z,83.49
2023-04-26T12:54:33.206Z,84.16
2023-04-26T12:57:05.662Z,87.70
2023-04-26T12:59:36.969Z,87.45
2023-04-26T13:02:10.095Z,88.42
2023-04-26T13:04:42.091Z,88.64
2023-04-26T13:07:13.683Z,88.85
2023-04-26T13:09:45.724Z,89.14
2023-04-26T13:12:17.182Z,88.90
2023-04-26T13:14:48.700Z,89.48
2023-04-26T13:17:20.505Z,89.12
2023-04-26T13:19:52.971Z,89.52
2023-04-26T13:22:24.411Z,88.99
2023-04-26T13:24:55.786Z,86.99
2023-04-26T13:27:29.081Z,86.35
2023-04-26T13:30:02.121Z,83.65
2023-04-26T13:32:33.548Z,82.82
2023-04-26T13:35:06.069Z,83.08
2023-04-26T13:37:37.603Z,82.82
2023-04-26T13:40:11.197Z,82.62
2023-04-26T13:42:42.691Z,81.01
2023-04-26T13:45:14.239Z,84.30
2023-04-26T13:47:45.682Z,83.73
2023-04-26T13:50:17.123Z,82.45
2023-04-26T13:52:50.819Z,83.31
2023-04-26T13:55:22.720Z,84.72
2023-04-26T13:57:54.011Z,84.58
2023-04-26T14:00:25.613Z,84.97
2023-04-26T14:02:57.312Z,84.32
2023-04-26T14:05:28.773Z,80.83
2023-04-26T14:08:00.139Z,81.18
2023-04-26T14:10:32.169Z,78.33
2023-04-26T14:13:03.602Z,77.22
2023-04-26T14:15:37.008Z,76.20
2023-04-26T14:18:08.652Z,76.63
2023-04-26T14:20:40.093Z,79.81
2023-04-26T14:23:11.465Z,78.66
2023-04-26T14:25:42.901Z,80.60
2023-04-26T14:28:16.312Z,80.05
2023-04-26T14:30:47.851Z,81.14
2023-04-26T14:33:19.227Z,81.15
2023-04-26T14:35:50.718Z,81.33
2023-04-26T14:38:22.238Z,78.61
2023-04-26T14:40:53.585Z,78.30
2023-04-26T14:43:24.984Z,78.05
2023-04-26T14:45:58.159Z,77.53
2023-04-26T14:48:30.367Z,77.02
2023-04-26T14:51:01.776Z,78.72
2023-04-26T14:53:33.129Z,79.62
2023-04-26T14:56:07.378Z,77.96
2023-04-26T14:58:38.666Z,75.36
2023-04-26T15:01:10.385Z,78.22
2023-04-26T15:03:41.930Z,77.09
2023-04-26T15:06:13.303Z,76.73
2023-04-26T15:08:44.706Z,76.58
2023-04-26T15:11:16.328Z,76.36
2023-04-26T15:13:47.700Z,76.52
2023-04-26T15:16:19.335Z,77.57
2023-04-26T15:18:50.737Z,73.84
2023-04-26T15:21:22.072Z,75.86
2023-04-26T15:23:53.696Z,75.29
2023-04-26T15:26:25.840Z,76.10
2023-04-26T15:28:57.552Z,74.90
2023-04-26T15:31:29.046Z,76.98
2023-04-26T15:34:00.567Z,76.23
2023-04-26T15:36:31.979Z,78.06
2023-04-26T15:39:03.930Z,78.46
2023-04-26T15:41:35.250Z,77.39
2023-04-26T15:44:06.567Z,77.99
2023-04-26T15:46:38.275Z,77.50
2023-04-26T15:49:09.704Z,78.08
2023-04-26T15:51:41.068Z,77.59
2023-04-26T15:54:12.440Z,77.68
2023-04-26T15:56:44.912Z,76.91
2023-04-26T15:59:16.213Z,75.09
2023-04-26T16:01:47.678Z,75.84
2023-04-26T16:04:19.159Z,75.06
2023-04-26T16:06:50.654Z,75.81
2023-04-26T16:09:25.492Z,75.21
2023-04-26T16:11:57.303Z,74.55
2023-04-26T16:14:28.827Z,74.02
2023-04-26T16:17:01.467Z,72.26
2023-04-26T16:19:32.799Z,73.54
2023-04-26T16:22:04.307Z,74.94
2023-04-26T16:24:35.803Z,76.55
2023-04-26T16:27:07.121Z,76.64
2023-04-26T16:29:38.458Z,75.77
2023-04-26T16:32:09.727Z,75.90
2023-04-26T16:34:41.057Z,75.47
2023-04-26T16:37:12.389Z,73.71
2023-04-26T16:39:43.733Z,75.43
2023-04-26T16:42:15.051Z,75.34
2023-04-26T16:44:46.344Z,74.04
2023-04-26T16:47:17.719Z,73.39
2023-04-26T16:49:48.984Z,73.91
2023-04-26T16:52:20.304Z,74.69
2023-04-26T16:54:51.628Z,76.20
2023-04-26T16:57:23.779Z,76.43
2023-04-26T16:59:55.140Z,76.70
2023-04-26T17:02:26.732Z,77.60
2023-04-26T17:04:58.132Z,76.14
2023-04-26T17:07:29.523Z,76.28
2023-04-26T17:10:01.086Z,76.22
2023-04-26T17:12:32.379Z,76.00
2023-04-26T17:15:04.807Z,74.94
2023-04-26T17:17:36.301Z,76.32
2023-04-26T17:20:10.117Z,75.03
2023-04-26T17:22:42.554Z,76.47
2023-04-26T17:25:13.926Z,77.35
2023-04-26T17:27:45.449Z,75.82
2023-04-26T17:30:17.171Z,76.42
2023-04-26T17:32:48.762Z,75.66
2023-04-26T17:35:20.168Z,76.99
2023-04-26T17:37:51.596Z,77.83
2023-04-26T17:40:22.969Z,78.12
2023-04-26T17:42:54.293Z,77.71
2023-04-26T17:45:25.772Z,76.68
2023-04-26T17:47:57.272Z,77.38
2023-04-26T17:50:30.139Z,77.44
2023-04-26T17:53:03.017Z,76.88
2023-04-26T17:55:36.413Z,77.73
2023-04-26T17:58:07.864Z,76.72
2023-04-26T18:00:39.241Z,77.56
2023-04-26T18:03:11.811Z,77.65
2023-04-26T18:05:43.252Z,76.78
2023-04-26T18:08:14.624Z,77.64
2023-04-26T18:10:47.821Z,76.72
2023-04-26T18:13:20.928Z,76.43
2023-04-26T18:15:54.997Z,77.75
2023-04-26T18:18:27.785Z,77.65
2023-04-26T18:20:59.310Z,78.05
2023-04-26T18:23:30.990Z,78.44
2023-04-26T18:26:02.332Z,78.50
2023-04-26T18:28:33.691Z,78.63
2023-04-26T18:31:05.024Z,78.84
2023-04-26T18:33:36.334Z,77.93
2023-04-26T18:36:07.831Z,78.46
2023-04-26T18:38:39.243Z,79.14
2023-04-26T18:41:10.695Z,79.32
2023-04-26T18:43:41.987Z,79.12
2023-04-26T18:46:13.283Z,79.04
2023-04-26T18:48:44.627Z,79.30
2023-04-26T18:51:16.090Z,79.33
2023-04-26T18:53:47.407Z,79.53
2023-04-26T18:56:18.818Z,79.44
2023-04-26T18:58:50.084Z,79.66
2023-04-26T19:01:21.771Z,79.94
2023-04-26T19:03:53.324Z,80.08
2023-04-26T19:06:24.886Z,80.17
2023-04-26T19:08:56.318Z,80.00
2023-04-26T19:11:27.664Z,80.84
2023-04-26T19:13:59.011Z,80.50
2023-04-26T19:16:30.733Z,80.79
2023-04-26T19:19:03.245Z,80.99
2023-04-26T19:21:35.599Z,81.16
2023-04-26T19:24:07.375Z,81.53
2023-04-26T19:26:38.657Z,81.53
2023-04-26T19:29:10.616Z,81.48
2023-04-26T19:31:41.994Z,81.53
2023-04-26T19:34:13.395Z,81.61
2023-04-26T19:36:44.766Z,82.45
2023-04-26T19:39:16.537Z,82.25
2023-04-26T19:41:47.866Z,82.30
2023-04-26T19:44:20.319Z,81.97
2023-04-26T19:46:51.726Z,82.21
2023-04-26T19:49:23.078Z,82.24
2023-04-26T19:51:54.394Z,82.36
2023-04-26T19:54:25.757Z,82.78
2023-04-26T19:56:57.072Z,83.16
2023-04-26T19:59:28.404Z,82.44
2023-04-26T20:01:59.740Z,82.54
2023-04-26T20:04:31.192Z,82.82
2023-04-26T20:07:04.842Z,82.37
2023-04-26T20:09:36.137Z,83.07
2023-04-26T20:12:07.493Z,82.93
2023-04-26T20:14:38.930Z,83.58
2023-04-26T20:17:10.284Z,83.13
2023-04-26T20:19:42.539Z,83.75
2023-04-26T20:22:13.811Z,83.29
2023-04-26T20:24:45.080Z,83.99
2023-04-26T20:27:16.347Z,83.24
2023-04-26T20:29:47.619Z,83.72
2023-04-26T20:32:18.998Z,83.81
2023-04-26T20:34:50.650Z,83.92
2023-04-26T20:37:21.999Z,83.79
2023-04-26T20:39:53.446Z,83.82
2023-04-26T20:42:25.040Z,83.89
2023-04-26T20:44:57.413Z,84.17
2023-04-26T20:47:30.046Z,84.65
2023-04-26T20:50:01.533Z,84.75
2023-04-26T20:52:32.857Z,85.31
2023-04-26T20:55:04.569Z,84.08
2023-04-26T20:57:36.294Z,83.98
2023-04-26T21:00:10.372Z,84.07
2023-04-26T21:02:42.052Z,84.28
2023-04-26T21:05:14.649Z,85.01
2023-04-26T21:07:46.550Z,84.71
2023-04-26T21:10:17.828Z,83.75
2023-04-26T21:12:49.100Z,84.51
2023-04-26T21:15:20.743Z,85.14
2023-04-26T21:17:52.157Z,84.84
2023-04-26T21:20:23.606Z,84.76
2023-04-26T21:22:54.888Z,84.64
2023-04-26T21:25:27.771Z,84.62
2023-04-26T21:27:59.013Z,85.16
2023-04-26T21:30:30.302Z,84.95
2023-04-26T21:33:01.904Z,85.04
2023-04-26T21:35:33.243Z,85.22
2023-04-26T21:38:04.490Z,84.90
2023-04-26T21:40:35.853Z,85.23
2023-04-26T21:43:07.181Z,84.97
2023-04-26T21:45:38.474Z,85.46
2023-04-26T21:48:09.949Z,86.15
2023-04-26T21:50:41.526Z,85.60
2023-04-26T21:53:12.814Z,85.36
2023-04-26T21:55:44.310Z,85.83
2023-04-26T21:58:15.716Z,85.95
2023-04-26T22:00:47.504Z,85.79
2023-04-26T22:03:19.645Z,86.09
2023-04-26T22:05:51.152Z,86.10
2023-04-26T22:08:22.448Z,86.10
2023-04-26T22:10:53.764Z,86.58
2023-04-26T22:13:25.168Z,86.01
2023-04-26T22:15:56.570Z,86.32
2023-04-26T22:18:29.114Z,86.62
2023-04-26T22:21:00.505Z,86.69
2023-04-26T22:23:31.884Z,86.37
2023-04-26T22:26:03.200Z,86.85
2023-04-26T22:28:35.088Z,86.40
2023-04-26T22:31:06.403Z,86.45
2023-04-26T22:33:37.673Z,86.44
2023-04-26T22:36:09.513Z,86.75
2023-04-26T22:38:40.825Z,86.98
2023-04-26T22:41:12.144Z,87.10
2023-04-26T22:43:44.600Z,86.58
2023-04-26T22:46:17.591Z,87.13
2023-04-26T22:48:50.918Z,86.71
2023-04-26T22:51:22.354Z,86.83
2023-04-26T22:53:53.706Z,87.23
2023-04-26T22:56:24.995Z,87.51
2023-04-26T22:58:56.260Z,87.01
2023-04-26T23:01:27.648Z,87.26
2023-04-26T23:03:58.972Z,87.09
2023-04-26T23:06:30.237Z,87.12
2023-04-26T23:09:01.682Z,87.16
2023-04-26T23:11:33.293Z,86.80
2023-04-26T23:14:06.738Z,87.27
2023-04-26T23:16:38.767Z,87.68
2023-04-26T23:19:11.113Z,87.78
2023-04-26T23:21:42.543Z,87.36
2023-04-26T23:24:13.879Z,87.43
2023-04-26T23:26:45.254Z,87.09
2023-04-26T23:29:16.568Z,87.15
2023-04-26T23:31:48.021Z,87.79
2023-04-26T23:34:19.312Z,87.13
2023-04-26T23:36:50.666Z,88.01
2023-04-26T23:39:22.033Z,87.62
2023-04-26T23:41:53.301Z,87.32
2023-04-26T23:44:24.623Z,87.69
2023-04-26T23:46:56.108Z,87.80
2023-04-26T23:49:27.828Z,87.81
2023-04-26T23:51:59.178Z,87.56
2023-04-26T23:54:31.216Z,87.52
2023-04-26T23:57:03.969Z,87.69
2023-04-26T23:59:35.288Z,87.49
